sensor_id;sensor_type;location;lat;lon;timestamp;temperature;humidity
38209;DHT22;24016;52.102;11.584;2023-04-25T00:01:55;5.00;99.90
38209;DHT22;24016;52.102;11.584;2023-04-25T00:04:21;5.20;99.90
38209;DHT22;24016;52.102;11.584;2023-04-25T00:06:47;5.30;99.90
38209;DHT22;24016;52.102;11.584;2023-04-25T00:09:13;5.40;99.90
38209;DHT22;24016;52.102;11.584;2023-04-25T00:11:40;5.50;99.90
38209;DHT22;24016;52.102;11.584;2023-04-25T00:14:05;5.50;99.90
38209;DHT22;24016;52.102;11.584;2023-04-25T00:16:32;5.50;99.90
38209;DHT22;24016;52.102;11.584;2023-04-25T00:19:01;5.60;99.90
38209;DHT22;24016;52.102;11.584;2023-04-25T00:21:28;5.60;99.90
38209;DHT22;24016;52.102;11.584;2023-04-25T00:23:55;5.60;99.90
38209;DHT22;24016;52.102;11.584;2023-04-25T00:26:21;5.60;99.90
38209;DHT22;24016;52.102;11.584;2023-04-25T00:28:47;5.60;99.90
38209;DHT22;24016;52.102;11.584;2023-04-25T00:31:13;5.60;99.90
38209;DHT22;24016;52.102;11.584;2023-04-25T00:33:39;5.70;99.90
38209;DHT22;24016;52.102;11.584;2023-04-25T00:36:05;5.80;99.90
38209;DHT22;24016;52.102;11.584;2023-04-25T00:38:30;5.90;99.90
38209;DHT22;24016;52.102;11.584;2023-04-25T00:40:56;6.00;99.90
38209;DHT22;24016;52.102;11.584;2023-04-25T00:43:27;6.10;99.90
38209;DHT22;24016;52.102;11.584;2023-04-25T00:45:53;6.10;99.90
38209;DHT22;24016;52.102;11.584;2023-04-25T00:48:21;6.20;99.90
38209;DHT22;24016;52.102;11.584;2023-04-25T00:50:56;6.20;99.90
38209;DHT22;24016;52.102;11.584;2023-04-25T00:53:23;6.20;99.90
38209;DHT22;24016;52.102;11.584;2023-04-25T00:55:50;6.20;99.90
38209;DHT22;24016;52.102;11.584;2023-04-25T00:58:19;6.20;99.90
38209;DHT22;24016;52.102;11.584;2023-04-25T01:00:46;6.30;99.90
38209;DHT22;24016;52.102;11.584;2023-04-25T01:03:16;6.30;99.90
38209;DHT22;24016;52.102;11.584;2023-04-25T01:05:43;6.20;99.90
38209;DHT22;24016;52.102;11.584;2023-04-25T01:08:09;6.30;99.90
38209;DHT22;24016;52.102;11.584;2023-04-25T01:10:35;6.30;99.90
38209;DHT22;24016;52.102;11.584;2023-04-25T01:13:01;6.20;99.90
38209;DHT22;24016;52.102;11.584;2023-04-25T01:15:26;6.30;99.90
38209;DHT22;24016;52.102;11.584;2023-04-25T01:17:52;6.30;99.90
38209;DHT22;24016;52.102;11.584;2023-04-25T01:20:20;6.40;99.90
38209;DHT22;24016;52.102;11.584;2023-04-25T01:22:46;6.40;99.90
38209;DHT22;24016;52.102;11.584;2023-04-25T01:25:12;6.30;99.90
38209;DHT22;24016;52.102;11.584;2023-04-25T01:27:38;6.30;99.90
38209;DHT22;24016;52.102;11.584;2023-04-25T01:30:04;6.30;99.90
38209;DHT22;24016;52.102;11.584;2023-04-25T01:32:33;6.30;99.90
38209;DHT22;24016;52.102;11.584;2023-04-25T01:35:04;6.30;99.90
38209;DHT22;24016;52.102;11.584;2023-04-25T01:37:43;6.30;99.90
38209;DHT22;24016;52.102;11.584;2023-04-25T01:40:10;6.30;99.90
38209;DHT22;24016;52.102;11.584;2023-04-25T01:42:39;6.30;99.90
38209;DHT22;24016;52.102;11.584;2023-04-25T01:45:06;6.30;99.90
38209;DHT22;24016;52.102;11.584;2023-04-25T01:47:31;6.20;99.90
38209;DHT22;24016;52.102;11.584;2023-04-25T01:49:57;6.10;99.90
38209;DHT22;24016;52.102;11.584;2023-04-25T01:52:23;6.10;99.90
38209;DHT22;24016;52.102;11.584;2023-04-25T01:54:49;6.10;99.90
38209;DHT22;24016;52.102;11.584;2023-04-25T01:57:16;6.00;99.90
38209;DHT22;24016;52.102;11.584;2023-04-25T01:59:42;5.90;99.90
38209;DHT22;24016;52.102;11.584;2023-04-25T02:02:08;5.90;99.90
38209;DHT22;24016;52.102;11.584;2023-04-25T02:04:33;5.90;99.90
38209;DHT22;24016;52.102;11.584;2023-04-25T02:06:59;5.90;99.90
38209;DHT22;24016;52.102;11.584;2023-04-25T02:09:25;6.00;99.90
38209;DHT22;24016;52.102;11.584;2023-04-25T02:11:50;6.00;99.90
38209;DHT22;24016;52.102;11.584;2023-04-25T02:14:16;6.00;99.90
38209;DHT22;24016;52.102;11.584;2023-04-25T02:16:41;6.00;99.90
38209;DHT22;24016;52.102;11.584;2023-04-25T02:19:09;6.10;99.90
38209;DHT22;24016;52.102;11.584;2023-04-25T02:21:35;6.10;99.90
38209;DHT22;24016;52.102;11.584;2023-04-25T02:24:01;6.10;99.90
38209;DHT22;24016;52.102;11.584;2023-04-25T02:26:27;6.10;99.90
38209;DHT22;24016;52.102;11.584;2023-04-25T02:28:52;6.00;99.90
38209;DHT22;24016;52.102;11.584;2023-04-25T02:31:18;6.00;99.90
38209;DHT22;24016;52.102;11.584;2023-04-25T02:33:44;6.10;99.90
38209;DHT22;24016;52.102;11.584;2023-04-25T02:36:09;6.10;99.90
38209;DHT22;24016;52.102;11.584;2023-04-25T02:38:35;6.00;99.90
38209;DHT22;24016;52.102;11.584;2023-04-25T02:41:01;6.00;99.90
38209;DHT22;24016;52.102;11.584;2023-04-25T02:43:26;6.00;99.90
38209;DHT22;24016;52.102;11.584;2023-04-25T02:45:52;6.00;99.90
38209;DHT22;24016;52.102;11.584;2023-04-25T02:48:17;6.00;99.90
38209;DHT22;24016;52.102;11.584;2023-04-25T02:50:43;6.00;99.90
38209;DHT22;24016;52.102;11.584;2023-04-25T02:53:08;6.00;99.90
38209;DHT22;24016;52.102;11.584;2023-04-25T02:55:34;5.90;99.90
38209;DHT22;24016;52.102;11.584;2023-04-25T02:57:59;5.90;99.90
38209;DHT22;24016;52.102;11.584;2023-04-25T03:00:25;5.80;99.90
38209;DHT22;24016;52.102;11.584;2023-04-25T03:02:51;5.80;99.90
38209;DHT22;24016;52.102;11.584;2023-04-25T03:05:17;5.70;99.90
38209;DHT22;24016;52.102;11.584;2023-04-25T03:07:43;5.60;99.90
38209;DHT22;24016;52.102;11.584;2023-04-25T03:10:10;5.60;99.90
38209;DHT22;24016;52.102;11.584;2023-04-25T03:12:35;5.50;99.90
38209;DHT22;24016;52.102;11.584;2023-04-25T03:15:01;5.40;99.90
38209;DHT22;24016;52.102;11.584;2023-04-25T03:17:27;5.30;99.90
38209;DHT22;24016;52.102;11.584;2023-04-25T03:19:52;5.30;99.90
38209;DHT22;24016;52.102;11.584;2023-04-25T03:22:17;5.30;99.90
38209;DHT22;24016;52.102;11.584;2023-04-25T03:24:43;5.30;99.90
38209;DHT22;24016;52.102;11.584;2023-04-25T03:27:09;5.30;99.90
38209;DHT22;24016;52.102;11.584;2023-04-25T03:29:34;5.20;99.90
38209;DHT22;24016;52.102;11.584;2023-04-25T03:32:00;5.20;99.90
38209;DHT22;24016;52.102;11.584;2023-04-25T03:34:26;5.20;99.90
38209;DHT22;24016;52.102;11.584;2023-04-25T03:36:51;5.20;99.90
38209;DHT22;24016;52.102;11.584;2023-04-25T03:39:17;5.30;99.90
38209;DHT22;24016;52.102;11.584;2023-04-25T03:41:42;5.30;99.90
38209;DHT22;24016;52.102;11.584;2023-04-25T03:44:08;5.40;99.90
38209;DHT22;24016;52.102;11.584;2023-04-25T03:46:34;5.40;99.90
38209;DHT22;24016;52.102;11.584;2023-04-25T03:48:59;5.50;99.90
38209;DHT22;24016;52.102;11.584;2023-04-25T03:51:25;5.50;99.90
38209;DHT22;24016;52.102;11.584;2023-04-25T03:53:51;5.60;99.90
38209;DHT22;24016;52.102;11.584;2023-04-25T03:56:17;5.60;99.90
38209;DHT22;24016;52.102;11.584;2023-04-25T03:58:43;5.60;99.90
38209;DHT22;24016;52.102;11.584;2023-04-25T04:01:08;5.70;99.90
38209;DHT22;24016;52.102;11.584;2023-04-25T04:03:34;5.70;99.90
38209;DHT22;24016;52.102;11.584;2023-04-25T04:06:04;5.70;99.90
38209;DHT22;24016;52.102;11.584;2023-04-25T04:08:36;5.70;99.90
38209;DHT22;24016;52.102;11.584;2023-04-25T04:11:01;5.70;99.90
38209;DHT22;24016;52.102;11.584;2023-04-25T04:13:27;5.70;99.90
38209;DHT22;24016;52.102;11.584;2023-04-25T04:15:53;5.70;99.90
38209;DHT22;24016;52.102;11.584;2023-04-25T04:18:18;5.70;99.90
38209;DHT22;24016;52.102;11.584;2023-04-25T04:20:44;5.80;99.90
38209;DHT22;24016;52.102;11.584;2023-04-25T04:23:10;5.80;99.90
38209;DHT22;24016;52.102;11.584;2023-04-25T04:25:37;5.80;99.90
38209;DHT22;24016;52.102;11.584;2023-04-25T04:28:03;5.80;99.90
38209;DHT22;24016;52.102;11.584;2023-04-25T04:30:29;5.90;99.90
38209;DHT22;24016;52.102;11.584;2023-04-25T04:32:55;6.00;99.90
38209;DHT22;24016;52.102;11.584;2023-04-25T04:35:22;6.00;99.90
38209;DHT22;24016;52.102;11.584;2023-04-25T04:37:48;6.00;99.90
38209;DHT22;24016;52.102;11.584;2023-04-25T04:40:15;6.00;99.90
38209;DHT22;24016;52.102;11.584;2023-04-25T04:42:44;6.00;99.90
38209;DHT22;24016;52.102;11.584;2023-04-25T04:45:13;6.10;99.90
38209;DHT22;24016;52.102;11.584;2023-04-25T04:47:39;6.10;99.90
38209;DHT22;24016;52.102;11.584;2023-04-25T04:50:06;6.20;99.90
38209;DHT22;24016;52.102;11.584;2023-04-25T04:52:34;6.20;99.90
38209;DHT22;24016;52.102;11.584;2023-04-25T04:54:59;6.20;99.90
38209;DHT22;24016;52.102;11.584;2023-04-25T04:57:25;6.20;99.90
38209;DHT22;24016;52.102;11.584;2023-04-25T04:59:51;6.20;99.90
38209;DHT22;24016;52.102;11.584;2023-04-25T05:02:16;6.20;99.90
38209;DHT22;24016;52.102;11.584;2023-04-25T05:04:42;6.20;99.90
38209;DHT22;24016;52.102;11.584;2023-04-25T05:07:08;6.30;99.90
38209;DHT22;24016;52.102;11.584;2023-04-25T05:09:33;6.20;99.90
38209;DHT22;24016;52.102;11.584;2023-04-25T05:11:59;6.20;99.90
38209;DHT22;24016;52.102;11.584;2023-04-25T05:14:26;6.30;99.90
38209;DHT22;24016;52.102;11.584;2023-04-25T05:16:51;6.30;99.90
38209;DHT22;24016;52.102;11.584;2023-04-25T05:19:17;6.30;99.90
38209;DHT22;24016;52.102;11.584;2023-04-25T05:21:42;6.30;99.90
38209;DHT22;24016;52.102;11.584;2023-04-25T05:24:08;6.30;99.90
38209;DHT22;24016;52.102;11.584;2023-04-25T05:26:34;6.30;99.90
38209;DHT22;24016;52.102;11.584;2023-04-25T05:29:00;6.30;99.90
38209;DHT22;24016;52.102;11.584;2023-04-25T05:31:25;6.20;99.90
38209;DHT22;24016;52.102;11.584;2023-04-25T05:33:52;6.20;99.90
38209;DHT22;24016;52.102;11.584;2023-04-25T05:36:18;6.20;99.90
38209;DHT22;24016;52.102;11.584;2023-04-25T05:38:44;6.20;99.90
38209;DHT22;24016;52.102;11.584;2023-04-25T05:41:10;6.20;99.90
38209;DHT22;24016;52.102;11.584;2023-04-25T05:43:36;6.10;99.90
38209;DHT22;24016;52.102;11.584;2023-04-25T05:46:01;6.10;99.90
38209;DHT22;24016;52.102;11.584;2023-04-25T05:48:27;6.10;99.90
38209;DHT22;24016;52.102;11.584;2023-04-25T05:50:52;6.10;99.90
38209;DHT22;24016;52.102;11.584;2023-04-25T05:53:19;6.10;99.90
38209;DHT22;24016;52.102;11.584;2023-04-25T05:55:45;6.10;99.90
38209;DHT22;24016;52.102;11.584;2023-04-25T05:58:10;6.20;99.90
38209;DHT22;24016;52.102;11.584;2023-04-25T06:00:36;6.20;99.90
38209;DHT22;24016;52.102;11.584;2023-04-25T06:03:01;6.20;99.90
38209;DHT22;24016;52.102;11.584;2023-04-25T06:05:27;6.20;99.90
38209;DHT22;24016;52.102;11.584;2023-04-25T06:07:53;6.30;99.90
38209;DHT22;24016;52.102;11.584;2023-04-25T06:10:18;6.30;99.90
38209;DHT22;24016;52.102;11.584;2023-04-25T06:12:44;6.40;99.90
38209;DHT22;24016;52.102;11.584;2023-04-25T06:15:10;6.40;99.90
38209;DHT22;24016;52.102;11.584;2023-04-25T06:17:35;6.50;99.90
38209;DHT22;24016;52.102;11.584;2023-04-25T06:20:01;6.50;99.90
38209;DHT22;24016;52.102;11.584;2023-04-25T06:22:27;6.50;99.90
38209;DHT22;24016;52.102;11.584;2023-04-25T06:24:53;6.60;99.90
38209;DHT22;24016;52.102;11.584;2023-04-25T06:27:18;6.70;99.90
38209;DHT22;24016;52.102;11.584;2023-04-25T06:29:44;6.70;99.90
38209;DHT22;24016;52.102;11.584;2023-04-25T06:32:09;6.80;99.90
38209;DHT22;24016;52.102;11.584;2023-04-25T06:34:35;6.80;99.90
38209;DHT22;24016;52.102;11.584;2023-04-25T06:37:00;6.80;99.90
38209;DHT22;24016;52.102;11.584;2023-04-25T06:39:26;6.80;99.90
38209;DHT22;24016;52.102;11.584;2023-04-25T06:41:51;6.90;99.90
38209;DHT22;24016;52.102;11.584;2023-04-25T06:44:17;6.90;99.90
38209;DHT22;24016;52.102;11.584;2023-04-25T06:46:42;6.90;99.90
38209;DHT22;24016;52.102;11.584;2023-04-25T06:49:08;6.80;99.90
38209;DHT22;24016;52.102;11.584;2023-04-25T06:51:33;6.90;99.90
38209;DHT22;24016;52.102;11.584;2023-04-25T06:53:59;6.90;99.90
38209;DHT22;24016;52.102;11.584;2023-04-25T06:56:25;7.00;99.90
38209;DHT22;24016;52.102;11.584;2023-04-25T06:58:50;7.10;99.90
38209;DHT22;24016;52.102;11.584;2023-04-25T07:01:16;7.00;99.90
38209;DHT22;24016;52.102;11.584;2023-04-25T07:03:41;7.00;99.90
38209;DHT22;24016;52.102;11.584;2023-04-25T07:06:07;7.00;99.90
38209;DHT22;24016;52.102;11.584;2023-04-25T07:08:33;7.00;99.90
38209;DHT22;24016;52.102;11.584;2023-04-25T07:10:58;6.90;99.90
38209;DHT22;24016;52.102;11.584;2023-04-25T07:13:24;7.10;99.90
38209;DHT22;24016;52.102;11.584;2023-04-25T07:15:49;7.40;99.90
38209;DHT22;24016;52.102;11.584;2023-04-25T07:18:15;7.60;99.90
38209;DHT22;24016;52.102;11.584;2023-04-25T07:20:41;7.60;99.90
38209;DHT22;24016;52.102;11.584;2023-04-25T07:23:06;7.70;99.90
38209;DHT22;24016;52.102;11.584;2023-04-25T07:25:32;8.00;99.90
38209;DHT22;24016;52.102;11.584;2023-04-25T07:27:57;8.40;99.90
38209;DHT22;24016;52.102;11.584;2023-04-25T07:30:23;8.50;99.90
38209;DHT22;24016;52.102;11.584;2023-04-25T07:32:49;8.60;99.90
38209;DHT22;24016;52.102;11.584;2023-04-25T07:35:15;8.90;99.90
38209;DHT22;24016;52.102;11.584;2023-04-25T07:37:41;9.00;99.90
38209;DHT22;24016;52.102;11.584;2023-04-25T07:40:07;8.90;99.90
38209;DHT22;24016;52.102;11.584;2023-04-25T07:42:34;8.90;99.90
38209;DHT22;24016;52.102;11.584;2023-04-25T07:45:00;9.40;99.90
38209;DHT22;24016;52.102;11.584;2023-04-25T07:47:26;9.70;99.90
38209;DHT22;24016;52.102;11.584;2023-04-25T07:49:52;9.60;99.90
38209;DHT22;24016;52.102;11.584;2023-04-25T07:52:17;9.60;99.90
38209;DHT22;24016;52.102;11.584;2023-04-25T07:54:43;10.30;99.90
38209;DHT22;24016;52.102;11.584;2023-04-25T07:57:08;11.20;99.90
38209;DHT22;24016;52.102;11.584;2023-04-25T07:59:34;12.00;99.90
38209;DHT22;24016;52.102;11.584;2023-04-25T08:02:00;12.10;99.90
38209;DHT22;24016;52.102;11.584;2023-04-25T08:04:26;12.60;99.90
38209;DHT22;24016;52.102;11.584;2023-04-25T08:06:51;12.80;99.90
38209;DHT22;24016;52.102;11.584;2023-04-25T08:09:19;11.80;99.90
38209;DHT22;24016;52.102;11.584;2023-04-25T08:11:44;11.50;99.90
38209;DHT22;24016;52.102;11.584;2023-04-25T08:14:11;11.70;99.90
38209;DHT22;24016;52.102;11.584;2023-04-25T08:16:40;12.10;99.90
38209;DHT22;24016;52.102;11.584;2023-04-25T08:19:07;12.20;99.90
38209;DHT22;24016;52.102;11.584;2023-04-25T08:21:33;12.40;99.90
38209;DHT22;24016;52.102;11.584;2023-04-25T08:23:58;12.90;99.90
38209;DHT22;24016;52.102;11.584;2023-04-25T08:26:24;13.50;99.90
38209;DHT22;24016;52.102;11.584;2023-04-25T08:28:50;13.40;99.90
38209;DHT22;24016;52.102;11.584;2023-04-25T08:31:16;13.40;99.90
38209;DHT22;24016;52.102;11.584;2023-04-25T08:33:42;12.90;99.90
38209;DHT22;24016;52.102;11.584;2023-04-25T08:36:07;12.20;99.90
38209;DHT22;24016;52.102;11.584;2023-04-25T08:38:33;11.80;99.90
38209;DHT22;24016;52.102;11.584;2023-04-25T08:41:00;11.90;99.90
38209;DHT22;24016;52.102;11.584;2023-04-25T08:43:26;11.50;99.90
38209;DHT22;24016;52.102;11.584;2023-04-25T08:45:54;11.50;99.90
38209;DHT22;24016;52.102;11.584;2023-04-25T08:48:21;12.20;99.90
38209;DHT22;24016;52.102;11.584;2023-04-25T08:50:53;12.30;99.90
38209;DHT22;24016;52.102;11.584;2023-04-25T08:53:26;12.60;99.90
38209;DHT22;24016;52.102;11.584;2023-04-25T08:55:54;13.00;99.90
38209;DHT22;24016;52.102;11.584;2023-04-25T08:58:20;13.20;99.90
38209;DHT22;24016;52.102;11.584;2023-04-25T09:00:46;13.30;99.90
38209;DHT22;24016;52.102;11.584;2023-04-25T09:03:12;12.90;99.90
38209;DHT22;24016;52.102;11.584;2023-04-25T09:05:39;12.50;99.90
38209;DHT22;24016;52.102;11.584;2023-04-25T09:08:05;12.10;99.90
38209;DHT22;24016;52.102;11.584;2023-04-25T09:10:31;11.70;99.90
38209;DHT22;24016;52.102;11.584;2023-04-25T09:13:07;12.00;99.90
38209;DHT22;24016;52.102;11.584;2023-04-25T09:15:55;12.50;99.90
38209;DHT22;24016;52.102;11.584;2023-04-25T09:18:24;12.10;99.90
38209;DHT22;24016;52.102;11.584;2023-04-25T09:20:55;12.10;99.90
38209;DHT22;24016;52.102;11.584;2023-04-25T09:23:21;11.90;99.90
38209;DHT22;24016;52.102;11.584;2023-04-25T09:25:48;11.80;99.90
38209;DHT22;24016;52.102;11.584;2023-04-25T09:28:14;12.00;99.90
38209;DHT22;24016;52.102;11.584;2023-04-25T09:30:39;11.80;99.90
38209;DHT22;24016;52.102;11.584;2023-04-25T09:33:10;11.40;99.90
38209;DHT22;24016;52.102;11.584;2023-04-25T09:35:40;10.90;99.90
38209;DHT22;24016;52.102;11.584;2023-04-25T09:38:13;10.40;99.90
38209;DHT22;24016;52.102;11.584;2023-04-25T09:40:44;10.40;99.90
38209;DHT22;24016;52.102;11.584;2023-04-25T09:43:19;10.30;99.90
38209;DHT22;24016;52.102;11.584;2023-04-25T09:45:46;10.10;99.90
38209;DHT22;24016;52.102;11.584;2023-04-25T09:48:18;10.10;99.90
38209;DHT22;24016;52.102;11.584;2023-04-25T09:50:44;10.20;99.90
38209;DHT22;24016;52.102;11.584;2023-04-25T09:53:10;10.20;99.90
38209;DHT22;24016;52.102;11.584;2023-04-25T09:55:36;10.40;99.90
38209;DHT22;24016;52.102;11.584;2023-04-25T09:58:06;10.60;99.90
38209;DHT22;24016;52.102;11.584;2023-04-25T10:00:33;10.80;99.90
38209;DHT22;24016;52.102;11.584;2023-04-25T10:03:01;11.40;99.90
38209;DHT22;24016;52.102;11.584;2023-04-25T10:05:30;12.00;99.90
38209;DHT22;24016;52.102;11.584;2023-04-25T10:07:58;11.50;99.90
38209;DHT22;24016;52.102;11.584;2023-04-25T10:10:26;10.70;99.90
38209;DHT22;24016;52.102;11.584;2023-04-25T10:12:53;10.10;99.90
38209;DHT22;24016;52.102;11.584;2023-04-25T10:15:20;9.60;99.90
38209;DHT22;24016;52.102;11.584;2023-04-25T10:17:48;9.30;99.90
38209;DHT22;24016;52.102;11.584;2023-04-25T10:20:14;9.10;99.90
38209;DHT22;24016;52.102;11.584;2023-04-25T10:22:42;9.00;99.90
38209;DHT22;24016;52.102;11.584;2023-04-25T10:25:08;8.90;99.90
38209;DHT22;24016;52.102;11.584;2023-04-25T10:27:34;9.00;99.90
38209;DHT22;24016;52.102;11.584;2023-04-25T10:30:20;9.10;99.90
38209;DHT22;24016;52.102;11.584;2023-04-25T10:32:47;8.90;99.90
38209;DHT22;24016;52.102;11.584;2023-04-25T10:35:18;8.80;99.90
38209;DHT22;24016;52.102;11.584;2023-04-25T10:37:57;8.70;99.90
38209;DHT22;24016;52.102;11.584;2023-04-25T10:40:23;8.60;99.90
38209;DHT22;24016;52.102;11.584;2023-04-25T10:42:52;8.50;99.90
38209;DHT22;24016;52.102;11.584;2023-04-25T10:45:18;8.50;99.90
38209;DHT22;24016;52.102;11.584;2023-04-25T10:47:44;8.50;99.90
38209;DHT22;24016;52.102;11.584;2023-04-25T10:50:10;8.60;99.90
38209;DHT22;24016;52.102;11.584;2023-04-25T10:52:38;8.80;99.90
38209;DHT22;24016;52.102;11.584;2023-04-25T10:55:04;9.10;99.90
38209;DHT22;24016;52.102;11.584;2023-04-25T10:57:43;9.40;99.90
38209;DHT22;24016;52.102;11.584;2023-04-25T11:00:16;10.80;99.90
38209;DHT22;24016;52.102;11.584;2023-04-25T11:02:52;11.00;99.90
38209;DHT22;24016;52.102;11.584;2023-04-25T11:05:33;10.70;99.90
38209;DHT22;24016;52.102;11.584;2023-04-25T11:07:59;10.40;99.90
38209;DHT22;24016;52.102;11.584;2023-04-25T11:10:31;9.90;99.90
38209;DHT22;24016;52.102;11.584;2023-04-25T11:12:57;9.60;99.90
38209;DHT22;24016;52.102;11.584;2023-04-25T11:15:23;9.40;99.90
38209;DHT22;24016;52.102;11.584;2023-04-25T11:17:51;9.20;99.90
38209;DHT22;24016;52.102;11.584;2023-04-25T11:20:17;9.20;99.90
38209;DHT22;24016;52.102;11.584;2023-04-25T11:22:45;9.30;99.90
38209;DHT22;24016;52.102;11.584;2023-04-25T11:25:13;9.50;99.90
38209;DHT22;24016;52.102;11.584;2023-04-25T11:27:52;10.00;99.90
38209;DHT22;24016;52.102;11.584;2023-04-25T11:30:18;10.20;99.90
38209;DHT22;24016;52.102;11.584;2023-04-25T11:32:44;10.10;99.90
38209;DHT22;24016;52.102;11.584;2023-04-25T11:35:10;10.00;99.90
38209;DHT22;24016;52.102;11.584;2023-04-25T11:37:38;9.90;99.90
38209;DHT22;24016;52.102;11.584;2023-04-25T11:40:05;9.70;99.90
38209;DHT22;24016;52.102;11.584;2023-04-25T11:42:32;9.70;99.90
38209;DHT22;24016;52.102;11.584;2023-04-25T11:44:58;9.80;99.90
38209;DHT22;24016;52.102;11.584;2023-04-25T11:47:31;9.80;99.90
38209;DHT22;24016;52.102;11.584;2023-04-25T11:50:03;9.90;99.90
38209;DHT22;24016;52.102;11.584;2023-04-25T11:52:43;9.70;99.90
38209;DHT22;24016;52.102;11.584;2023-04-25T11:55:14;9.60;99.90
38209;DHT22;24016;52.102;11.584;2023-04-25T11:57:40;9.50;99.90
38209;DHT22;24016;52.102;11.584;2023-04-25T12:02:53;9.70;99.90
38209;DHT22;24016;52.102;11.584;2023-04-25T12:05:19;10.40;99.90
38209;DHT22;24016;52.102;11.584;2023-04-25T12:07:46;12.30;99.90
38209;DHT22;24016;52.102;11.584;2023-04-25T12:10:13;13.40;99.90
38209;DHT22;24016;52.102;11.584;2023-04-25T12:12:43;13.20;99.90
38209;DHT22;24016;52.102;11.584;2023-04-25T12:17:45;11.80;99.30
38209;DHT22;24016;52.102;11.584;2023-04-25T12:20:13;11.30;99.90
38209;DHT22;24016;52.102;11.584;2023-04-25T12:22:41;11.10;99.90
38209;DHT22;24016;52.102;11.584;2023-04-25T12:25:10;10.90;99.90
38209;DHT22;24016;52.102;11.584;2023-04-25T12:27:36;10.60;99.90
38209;DHT22;24016;52.102;11.584;2023-04-25T12:30:02;10.40;99.90
38209;DHT22;24016;52.102;11.584;2023-04-25T12:32:29;10.00;99.90
38209;DHT22;24016;52.102;11.584;2023-04-25T12:34:54;9.80;99.90
38209;DHT22;24016;52.102;11.584;2023-04-25T12:37:20;9.90;99.90
38209;DHT22;24016;52.102;11.584;2023-04-25T12:39:46;9.90;99.90
38209;DHT22;24016;52.102;11.584;2023-04-25T12:42:11;9.70;99.90
38209;DHT22;24016;52.102;11.584;2023-04-25T12:44:37;9.60;99.90
38209;DHT22;24016;52.102;11.584;2023-04-25T12:47:05;9.70;99.90
38209;DHT22;24016;52.102;11.584;2023-04-25T12:49:31;10.00;99.90
38209;DHT22;24016;52.102;11.584;2023-04-25T12:51:57;10.20;99.90
38209;DHT22;24016;52.102;11.584;2023-04-25T12:54:23;10.30;99.90
38209;DHT22;24016;52.102;11.584;2023-04-25T12:56:48;10.40;99.90
38209;DHT22;24016;52.102;11.584;2023-04-25T12:59:15;10.40;99.90
38209;DHT22;24016;52.102;11.584;2023-04-25T13:01:41;10.50;99.90
38209;DHT22;24016;52.102;11.584;2023-04-25T13:04:06;10.20;99.90
38209;DHT22;24016;52.102;11.584;2023-04-25T13:06:32;10.00;99.90
38209;DHT22;24016;52.102;11.584;2023-04-25T13:08:57;9.80;99.90
38209;DHT22;24016;52.102;11.584;2023-04-25T13:11:23;9.70;99.90
38209;DHT22;24016;52.102;11.584;2023-04-25T13:13:48;9.50;99.90
38209;DHT22;24016;52.102;11.584;2023-04-25T13:16:14;9.50;99.90
38209;DHT22;24016;52.102;11.584;2023-04-25T13:18:40;9.40;99.90
38209;DHT22;24016;52.102;11.584;2023-04-25T13:21:06;9.50;99.90
38209;DHT22;24016;52.102;11.584;2023-04-25T13:23:31;9.60;99.90
38209;DHT22;24016;52.102;11.584;2023-04-25T13:25:57;9.70;99.90
38209;DHT22;24016;52.102;11.584;2023-04-25T13:28:27;9.90;99.90
38209;DHT22;24016;52.102;11.584;2023-04-25T13:30:53;10.20;99.90
38209;DHT22;24016;52.102;11.584;2023-04-25T13:33:19;10.50;99.90
38209;DHT22;24016;52.102;11.584;2023-04-25T13:35:46;10.90;99.90
38209;DHT22;24016;52.102;11.584;2023-04-25T13:38:12;11.10;99.90
38209;DHT22;24016;52.102;11.584;2023-04-25T13:40:38;11.40;99.90
38209;DHT22;24016;52.102;11.584;2023-04-25T13:43:04;11.60;99.90
38209;DHT22;24016;52.102;11.584;2023-04-25T13:45:34;11.60;99.90
38209;DHT22;24016;52.102;11.584;2023-04-25T13:48:00;11.50;99.90
38209;DHT22;24016;52.102;11.584;2023-04-25T13:50:25;11.40;99.90
38209;DHT22;24016;52.102;11.584;2023-04-25T13:52:51;11.50;99.90
38209;DHT22;24016;52.102;11.584;2023-04-25T13:55:17;11.50;99.90
38209;DHT22;24016;52.102;11.584;2023-04-25T13:57:42;11.10;99.90
38209;DHT22;24016;52.102;11.584;2023-04-25T14:00:08;10.90;99.90
38209;DHT22;24016;52.102;11.584;2023-04-25T14:02:35;10.80;99.90
38209;DHT22;24016;52.102;11.584;2023-04-25T14:05:02;11.00;99.90
38209;DHT22;24016;52.102;11.584;2023-04-25T14:07:28;11.10;99.90
38209;DHT22;24016;52.102;11.584;2023-04-25T14:09:53;10.90;99.90
38209;DHT22;24016;52.102;11.584;2023-04-25T14:12:19;10.60;99.80
38209;DHT22;24016;52.102;11.584;2023-04-25T14:14:44;10.30;99.90
38209;DHT22;24016;52.102;11.584;2023-04-25T14:17:10;10.30;99.90
38209;DHT22;24016;52.102;11.584;2023-04-25T14:19:36;10.60;99.90
38209;DHT22;24016;52.102;11.584;2023-04-25T14:22:03;10.90;99.90
38209;DHT22;24016;52.102;11.584;2023-04-25T14:24:29;11.10;99.60
38209;DHT22;24016;52.102;11.584;2023-04-25T14:26:55;11.40;99.90
38209;DHT22;24016;52.102;11.584;2023-04-25T14:29:20;11.50;99.90
38209;DHT22;24016;52.102;11.584;2023-04-25T14:31:46;11.50;99.90
38209;DHT22;24016;52.102;11.584;2023-04-25T14:34:12;11.60;99.90
38209;DHT22;24016;52.102;11.584;2023-04-25T14:36:38;11.80;99.50
38209;DHT22;24016;52.102;11.584;2023-04-25T14:39:04;12.00;99.90
38209;DHT22;24016;52.102;11.584;2023-04-25T14:41:32;12.00;99.90
38209;DHT22;24016;52.102;11.584;2023-04-25T14:43:57;11.80;99.60
38209;DHT22;24016;52.102;11.584;2023-04-25T14:46:23;11.40;99.70
38209;DHT22;24016;52.102;11.584;2023-04-25T14:48:49;11.00;99.90
38209;DHT22;24016;52.102;11.584;2023-04-25T14:51:15;10.80;99.90
38209;DHT22;24016;52.102;11.584;2023-04-25T14:53:41;11.00;99.90
38209;DHT22;24016;52.102;11.584;2023-04-25T14:56:07;11.30;99.90
38209;DHT22;24016;52.102;11.584;2023-04-25T14:58:33;11.30;99.90
38209;DHT22;24016;52.102;11.584;2023-04-25T15:00:59;10.90;99.50
38209;DHT22;24016;52.102;11.584;2023-04-25T15:03:24;10.40;99.90
38209;DHT22;24016;52.102;11.584;2023-04-25T15:05:50;10.30;99.90
38209;DHT22;24016;52.102;11.584;2023-04-25T15:08:16;10.40;99.90
38209;DHT22;24016;52.102;11.584;2023-04-25T15:10:41;10.40;99.90
38209;DHT22;24016;52.102;11.584;2023-04-25T15:13:07;10.30;99.90
38209;DHT22;24016;52.102;11.584;2023-04-25T15:15:32;10.30;99.90
38209;DHT22;24016;52.102;11.584;2023-04-25T15:17:58;10.20;99.90
38209;DHT22;24016;52.102;11.584;2023-04-25T15:20:24;10.10;99.90
38209;DHT22;24016;52.102;11.584;2023-04-25T15:22:50;10.10;99.90
38209;DHT22;24016;52.102;11.584;2023-04-25T15:25:16;10.10;99.90
38209;DHT22;24016;52.102;11.584;2023-04-25T15:27:45;10.10;99.90